Time;durP1;ratioP1;P1;durP2;ratioP2;P2;SDS_P1;SDS_P2;PMS_P1;PMS_P2;Temp;Humidity;BMP_temperature;BMP_pressure;BME280_temperature;BME280_humidity;BME280_pressure;Samples;Min_cycle;Max_cycle;Signal;HPM_P1;HPM_P2
2022/10/31 00:00:51;;;;;;;26.50;17.50;;;12.70;69.20;;;;;;5995318;23;114675;-80
2022/10/31 00:03:18;;;;;;;27.83;18.50;;;12.70;69.20;;;;;;5994456;23;114460;-80
2022/10/31 00:05:49;;;;;;;26.35;17.17;;;12.70;68.90;;;;;;5996421;23;114470;-80
2022/10/31 00:08:18;;;;;;;28.25;18.10;;;12.70;68.90;;;;;;5995615;23;114865;-80
2022/10/31 00:10:45;;;;;;;26.92;16.70;;;12.70;69.10;;;;;;5995547;23;114546;-80
2022/10/31 00:13:13;;;;;;;26.77;16.38;;;12.70;69.10;;;;;;5971265;23;114123;-80
2022/10/31 00:15:40;;;;;;;23.50;15.77;;;12.60;69.00;;;;;;5971610;23;114300;-80
2022/10/31 00:18:07;;;;;;;25.33;17.38;;;12.70;69.10;;;;;;5946944;23;115371;-80
2022/10/31 00:20:35;;;;;;;24.10;16.38;;;12.70;69.30;;;;;;5970894;23;114713;-81
2022/10/31 00:23:02;;;;;;;23.38;16.00;;;12.70;69.10;;;;;;5971757;23;114525;-80
2022/10/31 00:25:29;;;;;;;25.73;16.88;;;12.70;69.30;;;;;;5971415;23;114347;-80
2022/10/31 00:27:56;;;;;;;24.98;17.23;;;12.70;69.20;;;;;;5969963;23;114846;-81
2022/10/31 00:30:23;;;;;;;27.10;16.38;;;12.70;68.90;;;;;;5995431;23;114580;-81
2022/10/31 00:32:50;;;;;;;25.83;16.77;;;12.70;69.10;;;;;;5971236;23;114098;-81
2022/10/31 00:35:17;;;;;;;23.48;15.82;;;12.70;69.20;;;;;;5971550;23;114476;-80
2022/10/31 00:37:44;;;;;;;24.55;17.08;;;12.70;69.10;;;;;;5969947;23;114885;-81
2022/10/31 00:40:12;;;;;;;25.70;18.20;;;12.60;68.90;;;;;;5995490;23;114676;-81
2022/10/31 00:42:41;;;;;;;23.27;15.82;;;12.60;68.80;;;;;;5996417;23;114292;-81
2022/10/31 00:45:09;;;;;;;25.67;17.17;;;12.60;69.00;;;;;;5972441;23;115712;-81
2022/10/31 00:47:36;;;;;;;24.45;16.08;;;12.60;69.10;;;;;;5970072;23;114980;-80
2022/10/31 00:50:07;;;;;;;26.27;16.13;;;12.50;69.10;;;;;;5970146;23;114595;-81
2022/10/31 00:52:34;;;;;;;24.05;16.08;;;12.50;69.10;;;;;;5970757;23;114579;-81
2022/10/31 00:55:02;;;;;;;24.50;17.00;;;12.40;69.10;;;;;;5970718;23;114375;-81
2022/10/31 00:57:29;;;;;;;26.10;17.90;;;12.40;69.00;;;;;;5970107;23;115225;-81
2022/10/31 00:59:56;;;;;;;24.67;18.20;;;12.40;69.20;;;;;;5995171;23;114517;-82
2022/10/31 01:02:23;;;;;;;24.77;16.83;;;12.30;69.20;;;;;;5970981;23;114217;-81
2022/10/31 01:05:09;;;;;;;23.20;15.52;;;12.30;69.40;;;;;;5973304;23;115071;-81
2022/10/31 01:07:40;;;;;;;24.65;15.73;;;12.20;69.20;;;;;;5946076;23;114996;-81
2022/10/31 01:10:09;;;;;;;22.40;15.32;;;12.20;69.20;;;;;;5970309;23;114538;-80
2022/10/31 01:12:44;;;;;;;24.15;16.20;;;12.20;69.40;;;;;;5970679;23;114414;-80
2022/10/31 01:15:11;;;;;;;23.52;15.73;;;12.20;69.60;;;;;;5970327;23;114511;-80
2022/10/31 01:17:39;;;;;;;22.90;16.42;;;12.20;69.40;;;;;;5994044;23;114854;-81
2022/10/31 01:20:07;;;;;;;25.88;15.57;;;12.20;69.60;;;;;;5969675;23;114560;-79
2022/10/31 01:22:34;;;;;;;22.45;15.88;;;12.10;69.70;;;;;;5995712;23;114360;-80
2022/10/31 01:25:01;;;;;;;23.23;15.30;;;12.10;69.50;;;;;;5969549;23;114343;-81
2022/10/31 01:27:29;;;;;;;21.27;15.00;;;12.10;69.70;;;;;;5969575;23;114841;-80
2022/10/31 01:29:55;;;;;;;23.17;15.57;;;12.10;69.80;;;;;;5969690;23;114578;-80
2022/10/31 01:32:23;;;;;;;24.48;15.13;;;12.10;69.80;;;;;;5995884;23;114289;-80
2022/10/31 01:34:50;;;;;;;23.40;15.25;;;12.10;69.80;;;;;;5971077;23;114551;-80
2022/10/31 01:37:18;;;;;;;20.65;14.65;;;12.10;69.70;;;;;;5994361;23;114789;-80
2022/10/31 01:39:45;;;;;;;20.80;14.18;;;12.10;69.50;;;;;;5969649;23;114860;-80
2022/10/31 01:42:19;;;;;;;23.27;15.60;;;12.10;69.50;;;;;;5970231;23;114113;-80
2022/10/31 01:44:52;;;;;;;21.42;14.77;;;12.10;69.40;;;;;;5970924;23;114449;-80
2022/10/31 01:47:26;;;;;;;22.75;14.93;;;12.00;69.60;;;;;;5946704;23;115595;-79
2022/10/31 01:49:57;;;;;;;22.15;14.77;;;12.00;69.60;;;;;;5946657;23;115994;-81
2022/10/31 01:52:55;;;;;;;22.55;15.00;;;11.90;69.60;;;;;;5970757;23;114200;-79
2022/10/31 01:55:31;;;;;;;23.27;15.13;;;12.00;69.80;;;;;;5991122;23;114761;-81
2022/10/31 01:58:06;;;;;;;20.77;14.05;;;11.90;69.70;;;;;;5945445;23;115114;-79
2022/10/31 02:00:33;;;;;;;22.85;14.60;;;11.90;70.00;;;;;;5970633;23;114577;-79
2022/10/31 02:03:01;;;;;;;20.70;13.57;;;11.90;69.90;;;;;;5946894;23;114310;-79
2022/10/31 02:05:29;;;;;;;16.35;12.60;;;11.90;69.90;;;;;;5970185;23;114283;-79
2022/10/31 02:08:08;;;;;;;21.23;12.65;;;11.90;70.00;;;;;;5968692;23;115242;-80
2022/10/31 02:10:36;;;;;;;18.50;12.25;;;11.90;69.90;;;;;;5969185;23;114783;-79
2022/10/31 02:13:05;;;;;;;19.42;12.40;;;11.90;70.00;;;;;;5970406;23;114079;-79
2022/10/31 02:15:35;;;;;;;18.33;11.63;;;11.90;70.20;;;;;;5970002;23;114418;-79
2022/10/31 02:18:03;;;;;;;18.35;12.07;;;11.90;70.20;;;;;;5969711;23;114900;-79
2022/10/31 02:20:33;;;;;;;19.65;12.23;;;11.90;69.90;;;;;;5968747;23;114563;-79
2022/10/31 02:23:21;;;;;;;20.88;12.93;;;11.90;70.10;;;;;;5947240;23;114300;-79
2022/10/31 02:26:06;;;;;;;21.33;12.05;;;11.90;70.10;;;;;;5970492;23;114542;-80
2022/10/31 02:28:45;;;;;;;20.08;11.93;;;11.90;70.00;;;;;;5969328;23;114832;-79
2022/10/31 02:32:00;;;;;;;21.58;12.05;;;11.90;70.20;;;;;;5946430;23;115892;-79
2022/10/31 02:34:33;;;;;;;18.67;11.70;;;11.90;70.00;;;;;;5924187;23;114476;-79
2022/10/31 02:37:59;;;;;;;16.73;11.52;;;11.90;70.00;;;;;;5970937;23;114212;-78
2022/10/31 02:40:35;;;;;;;18.73;12.32;;;11.90;69.80;;;;;;5900455;23;114476;-79
2022/10/31 02:43:29;;;;;;;21.65;12.35;;;11.80;70.20;;;;;;5930674;23;115012;-79
2022/10/31 02:46:11;;;;;;;21.27;12.45;;;11.80;70.20;;;;;;5970794;23;114349;-80
2022/10/31 02:48:39;;;;;;;22.85;13.38;;;11.80;70.00;;;;;;5946742;23;114359;-79
2022/10/31 02:51:06;;;;;;;21.20;13.13;;;11.80;69.90;;;;;;5969687;23;116774;-80
2022/10/31 02:53:35;;;;;;;22.23;13.43;;;11.80;69.80;;;;;;5969772;23;114887;-79
2022/10/31 02:56:07;;;;;;;19.20;12.77;;;11.70;70.00;;;;;;5946212;23;114295;-79
2022/10/31 02:58:37;;;;;;;21.10;12.82;;;11.80;70.10;;;;;;5969915;23;114382;-79
2022/10/31 03:01:32;;;;;;;18.08;12.25;;;11.80;69.90;;;;;;5967863;23;116699;-80
2022/10/31 03:04:12;;;;;;;19.15;12.07;;;11.80;69.70;;;;;;5945783;23;114580;-79
2022/10/31 03:07:13;;;;;;;19.13;12.57;;;11.70;69.90;;;;;;5993622;23;114492;-79
2022/10/31 03:10:27;;;;;;;18.58;11.60;;;11.70;69.80;;;;;;5973867;23;114187;-78
2022/10/31 03:13:04;;;;;;;17.58;12.95;;;11.70;69.60;;;;;;5962403;23;114804;-80
2022/10/31 03:15:37;;;;;;;18.27;12.18;;;11.70;70.10;;;;;;5993260;23;114684;-80
2022/10/31 03:18:06;;;;;;;19.55;12.48;;;11.70;70.10;;;;;;5947989;23;114535;-79
2022/10/31 03:20:54;;;;;;;19.58;12.57;;;11.70;70.00;;;;;;5972086;23;114437;-79
2022/10/31 03:23:22;;;;;;;20.20;12.45;;;11.70;69.80;;;;;;5947037;23;114845;-79
2022/10/31 03:25:50;;;;;;;21.25;12.30;;;11.70;70.00;;;;;;5946862;23;114467;-80
2022/10/31 03:28:19;;;;;;;19.30;12.13;;;11.70;70.10;;;;;;5971115;23;114483;-81
2022/10/31 03:30:46;;;;;;;19.83;12.75;;;11.70;70.10;;;;;;5971596;23;114433;-79
2022/10/31 03:33:16;;;;;;;17.70;12.07;;;11.60;69.90;;;;;;5947051;23;114841;-80
2022/10/31 03:35:46;;;;;;;17.90;12.00;;;11.70;69.90;;;;;;5970669;23;114604;-80
2022/10/31 03:38:13;;;;;;;20.55;12.43;;;11.60;69.80;;;;;;5971775;23;114428;-80
2022/10/31 03:40:40;;;;;;;17.83;12.35;;;11.60;69.90;;;;;;5948220;23;114443;-80
2022/10/31 03:43:10;;;;;;;17.27;12.48;;;11.60;69.70;;;;;;5947047;23;114946;-80
2022/10/31 03:45:43;;;;;;;21.52;12.75;;;11.60;69.70;;;;;;5971865;23;114746;-80
2022/10/31 03:48:11;;;;;;;19.20;11.93;;;11.60;69.70;;;;;;5949006;23;114194;-80
2022/10/31 03:50:44;;;;;;;19.17;12.15;;;11.50;69.80;;;;;;5971634;23;114307;-80
2022/10/31 03:53:24;;;;;;;19.85;12.27;;;11.50;70.00;;;;;;5946498;23;115205;-80
2022/10/31 03:55:55;;;;;;;20.45;12.90;;;11.50;69.90;;;;;;5942801;23;114676;-80
2022/10/31 03:58:25;;;;;;;18.95;11.27;;;11.50;69.90;;;;;;5943991;23;114102;-80
2022/10/31 04:00:53;;;;;;;18.60;12.43;;;11.40;69.80;;;;;;5943500;23;114125;-80
2022/10/31 04:03:27;;;;;;;19.33;11.63;;;11.40;70.10;;;;;;5942417;23;114580;-81
2022/10/31 04:05:58;;;;;;;18.05;12.18;;;11.40;70.30;;;;;;5942733;23;115175;-80
2022/10/31 04:08:27;;;;;;;18.13;12.10;;;11.40;70.20;;;;;;5943677;23;114400;-80
2022/10/31 04:10:55;;;;;;;19.17;11.77;;;11.40;70.20;;;;;;5919991;23;114479;-80
2022/10/31 04:13:28;;;;;;;20.33;12.77;;;11.40;70.00;;;;;;5963991;23;114975;-80
2022/10/31 04:16:13;;;;;;;20.23;12.45;;;11.40;70.20;;;;;;5934175;23;114653;-79
2022/10/31 04:18:43;;;;;;;20.83;12.48;;;11.40;70.10;;;;;;5889657;23;114347;-79
2022/10/31 04:21:10;;;;;;;23.77;12.70;;;11.30;69.90;;;;;;5936365;23;114284;-79
2022/10/31 04:23:38;;;;;;;20.80;13.15;;;11.30;70.00;;;;;;5908707;23;115124;-79
2022/10/31 04:26:15;;;;;;;21.70;13.75;;;11.30;69.70;;;;;;5933867;23;115201;-79
2022/10/31 04:28:43;;;;;;;22.75;12.18;;;11.30;69.70;;;;;;5936393;23;114585;-80
2022/10/31 04:31:14;;;;;;;20.30;12.48;;;11.30;69.70;;;;;;5937054;23;114959;-80
2022/10/31 04:33:43;;;;;;;20.63;12.55;;;11.20;69.70;;;;;;5913164;23;115036;-80
2022/10/31 04:36:11;;;;;;;21.70;12.23;;;11.20;69.80;;;;;;5935760;23;114574;-79
2022/10/31 04:38:38;;;;;;;17.95;12.60;;;11.20;69.90;;;;;;5936679;23;114352;-80
2022/10/31 04:41:14;;;;;;;18.00;12.43;;;11.20;69.90;;;;;;5940672;23;114523;-80
2022/10/31 04:43:50;;;;;;;21.48;12.15;;;11.20;69.90;;;;;;5942725;23;115100;-79
2022/10/31 04:46:18;;;;;;;18.08;11.68;;;11.20;70.10;;;;;;5964926;23;114556;-80
2022/10/31 04:48:45;;;;;;;18.73;11.77;;;11.20;70.20;;;;;;5966408;23;114463;-79
2022/10/31 04:51:12;;;;;;;24.35;12.43;;;11.20;70.30;;;;;;5943378;23;114454;-79
2022/10/31 04:53:39;;;;;;;18.85;13.00;;;11.20;70.10;;;;;;5943649;23;114865;-79
2022/10/31 04:56:38;;;;;;;19.80;12.68;;;11.20;70.30;;;;;;5977642;23;114561;-79
2022/10/31 04:59:13;;;;;;;21.58;13.85;;;11.20;70.30;;;;;;5970826;23;114566;-79
2022/10/31 05:01:47;;;;;;;;;;;11.20;70.40;;;;;;5971678;23;114560;-78
2022/10/31 05:04:18;;;;;;;15.60;10.85;;;11.00;70.20;;;;;;5993568;23;114493;-81
2022/10/31 05:06:45;;;;;;;18.42;12.27;;;11.00;70.50;;;;;;5993901;23;114999;-79
2022/10/31 05:09:13;;;;;;;16.92;12.00;;;11.10;70.50;;;;;;5970431;23;114304;-80
2022/10/31 05:11:40;;;;;;;22.13;12.95;;;11.10;70.00;;;;;;5946915;23;114577;-79
2022/10/31 05:14:20;;;;;;;18.38;12.80;;;11.00;69.80;;;;;;5925148;23;116905;-79
2022/10/31 05:17:10;;;;;;;21.77;13.05;;;11.00;69.80;;;;;;5994039;23;115045;-78
2022/10/31 05:19:57;;;;;;;18.75;12.93;;;10.90;69.80;;;;;;5995956;23;114216;-80
2022/10/31 05:22:44;;;;;;;18.48;11.50;;;10.90;69.80;;;;;;5995979;23;114349;-78
2022/10/31 05:25:11;;;;;;;21.92;12.77;;;10.80;70.10;;;;;;5969876;23;114962;-80
2022/10/31 05:27:43;;;;;;;21.77;12.90;;;10.80;69.90;;;;;;5969872;23;114848;-79
2022/10/31 05:30:11;;;;;;;19.27;12.23;;;10.80;69.80;;;;;;5970908;23;114517;-80
2022/10/31 05:32:39;;;;;;;20.77;12.63;;;10.70;70.10;;;;;;5971115;23;114673;-80
2022/10/31 05:35:28;;;;;;;20.80;12.50;;;10.70;69.90;;;;;;5994125;23;114988;-78
2022/10/31 05:38:12;;;;;;;19.85;12.32;;;10.70;69.80;;;;;;5972571;23;114718;-80
2022/10/31 05:40:39;;;;;;;18.50;12.63;;;10.70;70.40;;;;;;5970673;23;114315;-79
2022/10/31 05:43:07;;;;;;;20.83;12.93;;;10.70;70.10;;;;;;5947644;23;114168;-80
2022/10/31 05:45:34;;;;;;;19.85;13.55;;;10.70;70.10;;;;;;5970135;23;114967;-80
2022/10/31 05:48:06;;;;;;;21.23;12.60;;;10.70;70.20;;;;;;5993543;23;114647;-81
2022/10/31 05:51:02;;;;;;;18.27;12.80;;;10.70;69.70;;;;;;5996659;23;114120;-79
2022/10/31 05:53:29;;;;;;;17.35;12.70;;;10.70;70.00;;;;;;5996688;23;114184;-81
2022/10/31 05:55:56;;;;;;;19.95;12.27;;;10.70;70.00;;;;;;5970212;23;114898;-81
2022/10/31 05:58:23;;;;;;;21.70;13.23;;;10.70;69.80;;;;;;5946208;23;116644;-81
2022/10/31 06:00:59;;;;;;;18.80;12.93;;;10.70;69.40;;;;;;5970405;23;114512;-81
2022/10/31 06:03:26;;;;;;;23.80;13.05;;;10.70;69.40;;;;;;5970722;23;114292;-79
2022/10/31 06:05:57;;;;;;;22.63;13.35;;;10.80;69.20;;;;;;5969615;23;114939;-80
2022/10/31 06:08:29;;;;;;;20.95;11.65;;;10.70;69.10;;;;;;5970954;23;114729;-80
2022/10/31 06:11:00;;;;;;;21.92;12.68;;;10.80;69.10;;;;;;5970997;23;114291;-80
2022/10/31 06:13:45;;;;;;;17.55;11.80;;;10.80;68.90;;;;;;5996020;23;114365;-81
2022/10/31 06:16:18;;;;;;;20.73;12.77;;;10.80;69.20;;;;;;5946564;23;114861;-80
2022/10/31 06:18:47;;;;;;;18.83;11.95;;;10.90;69.10;;;;;;5967479;23;116959;-81
2022/10/31 06:21:14;;;;;;;16.42;11.73;;;11.00;69.10;;;;;;5970273;23;114587;-81
2022/10/31 06:23:46;;;;;;;19.83;12.75;;;11.00;69.20;;;;;;5969650;23;114287;-81
2022/10/31 06:26:37;;;;;;;18.85;11.23;;;11.10;68.80;;;;;;5967999;23;116931;-81
2022/10/31 06:29:07;;;;;;;21.98;13.95;;;11.20;69.20;;;;;;5968466;23;115229;-81
2022/10/31 06:31:54;;;;;;;19.20;12.20;;;11.20;68.60;;;;;;5995103;23;114320;-80
2022/10/31 06:34:21;;;;;;;20.45;13.05;;;11.30;68.70;;;;;;5969374;23;114565;-81
2022/10/31 06:36:48;;;;;;;15.15;11.27;;;11.40;68.70;;;;;;5993206;23;115241;-81
2022/10/31 06:39:18;;;;;;;17.30;11.75;;;11.50;68.60;;;;;;5968417;23;114543;-81
2022/10/31 06:41:47;;;;;;;18.55;11.55;;;11.60;68.40;;;;;;5992592;23;114254;-81
2022/10/31 06:44:16;;;;;;;17.08;12.00;;;11.70;67.80;;;;;;5946826;23;114240;-80
2022/10/31 06:46:58;;;;;;;19.13;11.77;;;11.70;67.50;;;;;;5993308;23;114964;-80
2022/10/31 06:49:54;;;;;;;20.58;11.57;;;11.80;67.30;;;;;;5980308;23;115081;-81
2022/10/31 06:52:23;;;;;;;17.70;11.15;;;11.80;67.10;;;;;;5946081;23;114532;-80
2022/10/31 06:54:50;;;;;;;21.13;11.70;;;11.90;66.80;;;;;;5969872;23;115201;-81
2022/10/31 06:57:18;;;;;;;18.75;12.10;;;12.10;66.80;;;;;;5969674;23;114796;-81
2022/10/31 06:59:45;;;;;;;22.38;12.43;;;12.20;66.70;;;;;;5969816;23;115634;-81
2022/10/31 07:02:24;;;;;;;19.58;11.88;;;12.20;66.50;;;;;;5952903;23;114382;-81
2022/10/31 07:04:51;;;;;;;22.58;11.52;;;12.30;66.50;;;;;;5971594;23;114218;-80
2022/10/31 07:07:21;;;;;;;20.67;12.30;;;12.40;66.20;;;;;;5946924;23;115059;-81
2022/10/31 07:09:48;;;;;;;21.77;12.55;;;12.50;66.20;;;;;;5945658;23;116641;-81
2022/10/31 07:12:19;;;;;;;21.65;12.45;;;12.60;66.00;;;;;;5971460;23;114614;-81
2022/10/31 07:14:54;;;;;;;22.85;12.75;;;12.70;65.80;;;;;;5971462;23;114124;-81
2022/10/31 07:17:24;;;;;;;22.15;11.65;;;12.70;65.40;;;;;;5993197;23;115028;-81
2022/10/31 07:19:58;;;;;;;20.13;12.07;;;12.90;65.10;;;;;;5924951;23;116013;-80
2022/10/31 07:22:31;;;;;;;23.25;11.80;;;12.90;65.20;;;;;;5971148;23;114138;-82
2022/10/31 07:24:58;;;;;;;22.08;11.90;;;13.00;65.30;;;;;;5948939;23;114289;-81
2022/10/31 07:27:44;;;;;;;20.95;11.93;;;13.20;64.70;;;;;;5994941;23;115581;-80
2022/10/31 07:30:12;;;;;;;19.15;11.43;;;13.20;64.50;;;;;;5945584;23;116603;-80
2022/10/31 07:32:40;;;;;;;16.52;9.88;;;13.30;64.40;;;;;;5971257;23;114254;-81
2022/10/31 07:35:11;;;;;;;18.92;10.93;;;13.40;64.10;;;;;;5947806;23;114450;-79
2022/10/31 07:37:46;;;;;;;17.38;9.40;;;13.60;64.20;;;;;;5969525;23;115986;-79
2022/10/31 07:40:14;;;;;;;14.13;9.00;;;13.70;63.80;;;;;;5947431;23;114699;-79
2022/10/31 07:42:43;;;;;;;16.83;10.52;;;13.70;64.70;;;;;;5970419;23;114626;-80
2022/10/31 07:45:29;;;;;;;15.07;9.75;;;13.80;64.40;;;;;;5970830;23;114766;-80
2022/10/31 07:48:16;;;;;;;16.85;9.02;;;14.00;63.60;;;;;;5995122;23;114838;-80
2022/10/31 07:51:09;;;;;;;15.98;9.13;;;14.10;63.90;;;;;;5963502;23;115288;-80
2022/10/31 07:53:56;;;;;;;19.20;9.15;;;14.20;63.50;;;;;;5995616;23;115085;-80
2022/10/31 07:56:27;;;;;;;17.15;9.38;;;14.30;63.50;;;;;;5995500;23;114104;-79
2022/10/31 07:58:54;;;;;;;15.65;9.45;;;14.40;63.30;;;;;;5946938;23;114905;-78
2022/10/31 08:01:21;;;;;;;17.20;9.68;;;14.50;62.80;;;;;;5994160;23;114679;-79
2022/10/31 08:04:07;;;;;;;16.20;10.07;;;14.60;62.60;;;;;;5971219;23;114337;-80
2022/10/31 08:07:09;;;;;;;15.38;9.35;;;14.70;61.90;;;;;;5995676;23;114313;-79
2022/10/31 08:09:39;;;;;;;18.48;9.48;;;14.80;61.80;;;;;;5969760;23;114881;-78
2022/10/31 08:12:17;;;;;;;19.00;10.07;;;14.90;61.60;;;;;;5969430;23;114887;-79
2022/10/31 08:14:44;;;;;;;17.33;9.55;;;15.00;61.40;;;;;;5971354;23;114555;-80
2022/10/31 08:17:14;;;;;;;22.70;10.15;;;15.00;61.20;;;;;;5970975;23;114498;-81
2022/10/31 08:19:58;;;;;;;19.50;10.80;;;15.20;61.20;;;;;;5973784;23;114935;-81
2022/10/31 08:22:33;;;;;;;19.77;9.65;;;15.20;61.00;;;;;;5969844;23;114573;-84
2022/10/31 08:25:01;;;;;;;20.20;10.32;;;15.30;60.50;;;;;;5925248;23;114248;-80
2022/10/31 08:27:28;;;;;;;25.85;10.43;;;15.30;60.20;;;;;;5971570;23;114337;-81
2022/10/31 08:29:58;;;;;;;19.40;10.25;;;15.50;60.20;;;;;;5993808;23;115166;-81
2022/10/31 08:32:25;;;;;;;18.77;11.07;;;15.50;60.10;;;;;;5970040;23;115014;-80
2022/10/31 08:34:52;;;;;;;20.52;11.35;;;15.60;59.70;;;;;;5970723;23;114379;-80
2022/10/31 08:37:38;;;;;;;19.63;10.75;;;15.70;59.50;;;;;;5974659;23;114372;-80
2022/10/31 08:40:06;;;;;;;25.83;13.13;;;15.70;59.40;;;;;;5970797;23;114902;-81
2022/10/31 08:42:37;;;;;;;25.73;12.73;;;15.80;59.10;;;;;;5994032;23;114666;-80
2022/10/31 08:45:04;;;;;;;24.30;12.43;;;15.80;59.00;;;;;;5971348;23;114146;-80
2022/10/31 08:47:32;;;;;;;25.08;12.77;;;15.90;58.90;;;;;;5971378;23;114177;-81
2022/10/31 08:49:59;;;;;;;27.85;13.30;;;15.90;58.90;;;;;;5946204;23;114873;-81
2022/10/31 08:52:26;;;;;;;25.33;12.90;;;16.00;58.60;;;;;;5970293;23;114771;-81
2022/10/31 08:55:14;;;;;;;23.27;11.80;;;16.10;58.50;;;;;;5988251;23;114147;-81
2022/10/31 08:58:01;;;;;;;26.10;13.02;;;16.20;58.40;;;;;;5970192;23;114463;-81
2022/10/31 09:00:37;;;;;;;24.08;12.05;;;16.20;58.40;;;;;;5988287;23;115105;-82
2022/10/31 09:03:32;;;;;;;24.25;11.57;;;16.30;58.00;;;;;;5943537;23;117507;-82
2022/10/31 09:06:02;;;;;;;20.83;10.93;;;16.50;58.10;;;;;;5966151;23;114212;-82
2022/10/31 09:08:30;;;;;;;19.13;9.68;;;16.40;57.90;;;;;;5966554;23;115305;-81
2022/10/31 09:10:57;;;;;;;21.23;9.77;;;16.50;57.90;;;;;;5965128;23;115046;-82
2022/10/31 09:13:44;;;;;;;16.30;9.00;;;16.60;57.80;;;;;;5965261;23;114684;-82
2022/10/31 09:16:37;;;;;;;18.15;9.68;;;16.60;57.90;;;;;;5966473;23;114181;-81
2022/10/31 09:19:06;;;;;;;21.33;8.85;;;16.60;57.70;;;;;;5967696;23;114158;-81
2022/10/31 09:21:37;;;;;;;19.58;10.15;;;16.70;57.70;;;;;;5966159;23;114795;-81
2022/10/31 09:24:05;;;;;;;21.25;9.23;;;16.80;57.40;;;;;;5941326;23;115651;-81
2022/10/31 09:26:33;;;;;;;18.02;8.77;;;16.80;57.30;;;;;;5989584;23;114768;-81
2022/10/31 09:29:09;;;;;;;13.82;7.80;;;16.90;57.20;;;;;;5966245;23;114051;-81
2022/10/31 09:31:37;;;;;;;17.02;8.07;;;17.00;57.20;;;;;;5988789;23;115255;-81
2022/10/31 09:34:25;;;;;;;16.48;7.70;;;17.00;57.10;;;;;;5969493;23;114520;-80
2022/10/31 09:37:18;;;;;;;15.82;7.50;;;17.10;57.00;;;;;;5947431;23;114394;-81
2022/10/31 09:39:45;;;;;;;15.25;7.40;;;17.20;56.80;;;;;;5967786;23;114320;-81
2022/10/31 09:42:48;;;;;;;16.23;7.65;;;17.30;56.30;;;;;;5967792;23;114828;-81
2022/10/31 09:45:31;;;;;;;16.48;7.97;;;17.40;56.20;;;;;;5965327;23;114632;-82
2022/10/31 09:48:21;;;;;;;15.60;6.95;;;17.40;55.80;;;;;;5966264;23;114322;-81
2022/10/31 09:51:05;;;;;;;16.15;7.78;;;17.50;55.80;;;;;;5967562;23;114435;-81
2022/10/31 09:53:56;;;;;;;14.10;7.20;;;17.50;55.50;;;;;;5964871;23;114952;-81
2022/10/31 09:56:24;;;;;;;19.60;7.22;;;17.60;55.70;;;;;;5993973;23;114591;-80
2022/10/31 09:58:57;;;;;;;18.45;7.57;;;17.60;55.40;;;;;;5971975;23;114449;-81
2022/10/31 10:01:41;;;;;;;16.55;7.03;;;17.70;55.30;;;;;;5949098;23;114401;-81
2022/10/31 10:04:09;;;;;;;;;;;17.70;54.90;;;;;;5972543;23;114902;-81
2022/10/31 10:07:06;;;;;;;16.27;6.90;;;17.60;56.50;;;;;;5993712;23;114573;-81
2022/10/31 10:10:27;;;;;;;14.20;6.78;;;17.70;55.60;;;;;;5958505;23;114165;-81
2022/10/31 10:13:25;;;;;;;14.88;6.78;;;17.80;55.70;;;;;;5974617;23;114274;-81
2022/10/31 10:16:13;;;;;;;12.48;6.35;;;17.80;55.60;;;;;;5968760;23;115020;-82
2022/10/31 10:18:56;;;;;;;18.45;9.32;;;17.80;55.50;;;;;;5995017;23;114630;-82
2022/10/31 10:21:23;;;;;;;18.23;7.53;;;17.80;55.70;;;;;;5995425;23;114420;-80
2022/10/31 10:24:11;;;;;;;16.13;6.97;;;17.80;55.60;;;;;;5994049;23;114378;-81
2022/10/31 10:26:42;;;;;;;16.45;6.13;;;17.90;55.40;;;;;;5996025;23;114831;-82
2022/10/31 10:29:22;;;;;;;14.32;6.72;;;17.90;55.20;;;;;;5948250;23;114591;-82
2022/10/31 10:31:49;;;;;;;15.00;6.55;;;18.00;54.90;;;;;;5973182;23;114229;-81
2022/10/31 10:34:22;;;;;;;11.98;5.82;;;18.00;55.00;;;;;;5948549;23;114164;-81
2022/10/31 10:37:16;;;;;;;21.37;7.27;;;18.10;54.90;;;;;;5971438;23;114845;-82
2022/10/31 10:39:45;;;;;;;13.25;5.72;;;18.10;54.90;;;;;;5951630;23;116017;-81
2022/10/31 10:47:46;;;;;;;12.25;5.97;;;18.20;54.70;;;;;;5954639;23;114908;-81
2022/10/31 10:50:22;;;;;;;12.30;5.95;;;18.20;54.40;;;;;;5948157;23;114755;-81
2022/10/31 10:53:01;;;;;;;13.68;6.10;;;18.20;54.40;;;;;;5925472;23;114130;-82
2022/10/31 10:55:42;;;;;;;13.05;6.60;;;18.20;54.20;;;;;;5995737;23;115629;-82
2022/10/31 10:58:09;;;;;;;15.68;6.63;;;18.20;54.40;;;;;;5971664;23;114992;-81
2022/10/31 11:00:46;;;;;;;13.27;6.05;;;18.20;54.40;;;;;;5970950;23;114971;-82
2022/10/31 11:03:14;;;;;;;13.32;6.05;;;18.20;54.10;;;;;;5972905;23;114787;-81
2022/10/31 11:05:51;;;;;;;12.90;6.10;;;18.20;54.30;;;;;;5949158;23;114440;-80
2022/10/31 11:08:35;;;;;;;14.13;6.60;;;18.30;54.20;;;;;;5971105;23;115021;-79
2022/10/31 11:11:03;;;;;;;17.37;7.30;;;18.30;54.30;;;;;;5970157;23;114664;-81
2022/10/31 11:13:31;;;;;;;15.15;6.00;;;18.30;54.30;;;;;;5996271;23;114366;-81
2022/10/31 11:16:06;;;;;;;12.75;6.95;;;18.30;54.10;;;;;;5948446;23;114140;-81
2022/10/31 11:18:39;;;;;;;13.40;6.70;;;18.40;54.00;;;;;;5947137;23;114434;-82
2022/10/31 11:21:09;;;;;;;12.65;6.80;;;18.40;54.00;;;;;;5947490;23;114771;-81
2022/10/31 11:23:36;;;;;;;16.45;6.28;;;18.40;53.80;;;;;;5925769;23;114505;-81
2022/10/31 11:26:04;;;;;;;12.43;6.32;;;18.50;53.70;;;;;;5972015;23;114206;-81
2022/10/31 11:28:34;;;;;;;13.43;6.28;;;18.50;53.50;;;;;;5969691;23;115046;-81
2022/10/31 11:31:12;;;;;;;12.75;6.13;;;18.50;53.50;;;;;;5996012;23;114632;-80
2022/10/31 11:33:46;;;;;;;14.05;6.93;;;18.50;53.30;;;;;;5948810;23;114543;-81
2022/10/31 11:36:23;;;;;;;17.38;6.25;;;18.50;52.90;;;;;;5948495;23;114143;-81
2022/10/31 11:38:50;;;;;;;15.93;7.38;;;18.50;52.90;;;;;;5946515;23;115673;-81
2022/10/31 11:41:25;;;;;;;15.07;7.18;;;18.50;52.90;;;;;;5946776;23;118326;-81
2022/10/31 11:43:55;;;;;;;16.85;7.25;;;18.50;52.60;;;;;;5950069;23;114255;-81
2022/10/31 11:46:35;;;;;;;18.23;6.70;;;18.60;52.40;;;;;;5972160;23;114140;-81
2022/10/31 11:49:02;;;;;;;19.05;7.55;;;18.60;52.30;;;;;;5973148;23;114930;-80
2022/10/31 11:51:32;;;;;;;16.55;7.70;;;18.60;52.70;;;;;;5970219;23;114550;-81
2022/10/31 11:54:02;;;;;;;19.77;8.30;;;18.70;52.60;;;;;;5948256;23;114389;-80
2022/10/31 11:56:39;;;;;;;16.20;6.88;;;18.70;53.00;;;;;;5949252;23;114217;-81
2022/10/31 11:59:20;;;;;;;15.90;7.15;;;18.70;53.10;;;;;;5970325;23;114964;-81
2022/10/31 12:01:49;;;;;;;15.88;7.53;;;18.80;52.80;;;;;;5972041;23;114847;-81
2022/10/31 12:04:19;;;;;;;15.00;7.43;;;18.70;52.70;;;;;;5996002;23;114270;-81
2022/10/31 12:06:46;;;;;;;17.73;7.93;;;18.80;52.70;;;;;;5972337;23;114304;-82
2022/10/31 12:09:32;;;;;;;13.27;6.90;;;18.80;52.90;;;;;;5970644;23;114803;-80
2022/10/31 12:12:06;;;;;;;15.75;6.95;;;18.80;53.20;;;;;;5995576;23;116406;-81
2022/10/31 12:14:33;;;;;;;14.93;7.17;;;18.80;53.10;;;;;;5995978;23;114262;-81
2022/10/31 12:17:17;;;;;;;15.82;7.93;;;18.80;53.30;;;;;;5996141;23;114354;-81
2022/10/31 12:20:18;;;;;;;13.60;7.82;;;18.80;53.30;;;;;;5995006;23;114801;-80
2022/10/31 12:23:01;;;;;;;12.20;7.68;;;18.80;53.50;;;;;;5970444;23;114681;-81
2022/10/31 12:26:01;;;;;;;16.58;8.05;;;18.80;53.60;;;;;;5995868;23;114212;-80
2022/10/31 12:29:05;;;;;;;15.43;7.72;;;18.80;53.70;;;;;;5933162;23;114666;-81
2022/10/31 12:31:41;;;;;;;14.32;7.82;;;18.80;53.90;;;;;;5994089;23;114785;-81
2022/10/31 12:34:33;;;;;;;18.52;8.32;;;18.80;54.00;;;;;;5969611;23;114660;-82
2022/10/31 12:37:20;;;;;;;14.57;8.27;;;18.80;54.00;;;;;;5947174;23;114398;-82
2022/10/31 12:40:15;;;;;;;14.00;7.93;;;18.80;54.00;;;;;;5995891;23;114251;-79
2022/10/31 12:43:06;;;;;;;18.17;8.70;;;18.80;54.10;;;;;;5971477;23;114830;-80
2022/10/31 12:45:53;;;;;;;15.90;8.07;;;18.80;54.00;;;;;;5994534;23;115217;-81
2022/10/31 12:49:11;;;;;;;16.70;8.07;;;18.80;54.00;;;;;;5970711;23;114570;-81
2022/10/31 12:51:40;;;;;;;13.60;8.20;;;18.80;54.00;;;;;;5933844;23;114244;-80
2022/10/31 12:54:26;;;;;;;14.38;7.40;;;18.70;54.10;;;;;;5969184;23;115258;-81
2022/10/31 12:57:00;;;;;;;20.75;7.57;;;18.80;53.90;;;;;;5970453;23;115190;-81
2022/10/31 12:59:45;;;;;;;18.20;7.57;;;18.80;53.80;;;;;;5995183;23;114327;-80
2022/10/31 13:02:22;;;;;;;13.90;7.47;;;18.80;53.80;;;;;;5949862;23;114141;-81
2022/10/31 13:04:56;;;;;;;18.38;7.53;;;18.80;53.90;;;;;;5994853;23;115207;-81